Weather at Seattle Tacoma International Airport

Public forecast

Using degrees Fahrenheit for public forecast. Weather courtesy of forecast.io.

Current aviation weather report (METAR) for Seattle Tacoma International Airport

Retrieved 2022/05/23 06:53 UTC (42 minutes ago):

KSEA 230653Z 02003KT 10SM FEW100 SCT150 BKN200 15/06 A3017 RMK AO2 SLP223 T01500056

Aviation forecast (TAF) for Seattle Tacoma International Airport

Retrieved 2022/05/23 06:42 UTC (53 minutes ago):

TAF KSEA 230541Z 2306/2412 34006KT P6SM BKN200 FM231000 19008KT P6SM BKN100 OVC200 FM231600 19008KT P6SM BKN040 OVC070 FM231800 22008KT P6SM OVC022 FM240000 22008KT P6SM VCSH SCT020 BKN035 FM240600 34006KT P6SM SCT020 BKN035